Terminal Aerodrome Forecast
Issued by NWS

Home | Current Version | Previous Version | Text Only | Print | Product List | Glossary On
Versions: 1 2 3 4 5 6 7 8 9 10 11 12 13 14
427
FTUS41 KLWX 232328
TAFMTN
TAF
KMTN 232328Z 2400/2424 18006KT P6SM SCT090
     FM240200 18005KT P6SM BKN080
     FM240900 17004KT 3SM BR BKN100
     FM241300 17006KT P6SM BKN150
     FM241900 17010KT P6SM SCT150
      AMD NOT SKED 2402/2412=

USA.gov is the U.S. government's official web portal to all federal, state and local government web resources and services.